createdAt,value
2019-05-02T00:00:58.312Z,8.30
2019-05-02T00:03:35.899Z,8.20
2019-05-02T00:06:09.669Z,8.10
2019-05-02T00:08:48.522Z,8.10
2019-05-02T00:11:25.498Z,8.00
2019-05-02T00:13:59.461Z,8.00
2019-05-02T00:16:33.782Z,8.00
2019-05-02T00:19:09.049Z,8.10
2019-05-02T00:21:43.225Z,8.00
2019-05-02T00:24:16.801Z,8.30
2019-05-02T00:26:56.221Z,8.30
2019-05-02T00:29:27.889Z,8.10
2019-05-02T00:32:00.296Z,8.10
2019-05-02T00:34:35.022Z,8.00
2019-05-02T00:37:18.791Z,8.00
2019-05-02T00:39:49.211Z,8.20
2019-05-02T00:42:28.383Z,8.30
2019-05-02T00:45:04.285Z,8.30
2019-05-02T00:47:47.686Z,8.20
2019-05-02T00:50:28.931Z,8.30
2019-05-02T00:53:50.064Z,8.30
2019-05-02T00:56:23.240Z,8.30
2019-05-02T00:58:55.814Z,8.40
2019-05-02T01:01:36.172Z,8.40
2019-05-02T01:11:34.901Z,8.30
2019-05-02T01:14:12.471Z,8.30
2019-05-02T01:16:49.511Z,8.00
2019-05-02T01:19:27.700Z,8.10
2019-05-02T01:22:03.998Z,8.20
2019-05-02T01:24:39.618Z,8.40
2019-05-02T01:27:23.790Z,8.60
2019-05-02T01:30:05.409Z,8.70
2019-05-02T01:32:56.553Z,8.70
2019-05-02T01:35:44.388Z,8.70
2019-05-02T01:38:21.525Z,8.60
2019-05-02T01:40:56.196Z,8.70
2019-05-02T01:43:33.239Z,8.70
2019-05-02T01:46:05.971Z,8.60
2019-05-02T01:48:45.920Z,8.50
2019-05-02T01:51:19.568Z,8.50
2019-05-02T01:53:55.456Z,8.50
2019-05-02T01:56:33.225Z,8.50
2019-05-02T01:59:05.845Z,8.30
2019-05-02T02:01:39.428Z,8.10
2019-05-02T02:04:16.318Z,8.10
2019-05-02T02:06:57.210Z,8.00
2019-05-02T02:09:38.918Z,8.00
2019-05-02T02:12:18.952Z,8.00
2019-05-02T02:14:55.450Z,7.90
2019-05-02T02:17:28.584Z,7.80
2019-05-02T02:20:09.652Z,7.70
2019-05-02T02:24:25.222Z,7.60
2019-05-02T02:27:04.309Z,7.50
2019-05-02T02:29:43.875Z,7.30
2019-05-02T02:32:20.096Z,7.20
2019-05-02T02:34:56.571Z,7.10
2019-05-02T02:37:29.974Z,7.10
2019-05-02T02:41:45.488Z,7.10
2019-05-02T02:44:21.398Z,7.00
2019-05-02T02:46:56.953Z,6.80
2019-05-02T02:49:35.351Z,6.90
2019-05-02T02:52:09.089Z,7.20
2019-05-02T02:54:45.082Z,7.30
2019-05-02T02:57:26.003Z,7.40
2019-05-02T03:00:08.157Z,7.10
2019-05-02T03:02:47.734Z,7.10
2019-05-02T03:05:18.980Z,7.20
2019-05-02T03:07:52.565Z,7.20
2019-05-02T03:10:27.188Z,6.90
2019-05-02T03:13:24.753Z,6.90
2019-05-02T03:16:11.573Z,7.00
2019-05-02T03:18:44.918Z,6.80
2019-05-02T03:21:22.190Z,6.90
2019-05-02T03:24:03.270Z,6.80
2019-05-02T03:26:31.767Z,6.60
2019-05-02T03:29:08.050Z,6.40
2019-05-02T03:31:44.692Z,6.30
2019-05-02T03:34:18.819Z,6.20
2019-05-02T03:37:10.707Z,6.30
2019-05-02T03:39:38.721Z,6.20
2019-05-02T03:42:12.025Z,6.10
2019-05-02T03:44:54.890Z,6.00
2019-05-02T03:47:20.019Z,6.10
2019-05-02T03:49:55.228Z,6.10
2019-05-02T03:52:28.707Z,6.10
2019-05-02T03:55:01.067Z,6.10
2019-05-02T03:57:41.948Z,6.20
2019-05-02T04:00:20.862Z,6.10
2019-05-02T04:02:59.176Z,6.10
2019-05-02T04:05:33.358Z,6.10
2019-05-02T04:08:03.699Z,6.10
2019-05-02T04:10:59.653Z,6.00
2019-05-02T04:13:38.155Z,6.00
2019-05-02T04:16:19.941Z,5.90
2019-05-02T04:19:05.749Z,5.90
2019-05-02T04:21:43.347Z,6.00
2019-05-02T04:24:17.535Z,6.00
2019-05-02T04:26:56.370Z,6.00
2019-05-02T04:29:35.234Z,6.10
2019-05-02T04:32:11.408Z,6.10
2019-05-02T04:34:57.973Z,6.10
2019-05-02T04:37:40.918Z,6.30
2019-05-02T04:40:14.722Z,6.50
2019-05-02T04:43:00.303Z,6.90
2019-05-02T04:45:38.356Z,7.30
2019-05-02T04:48:03.984Z,7.50
2019-05-02T04:50:40.318Z,7.60
2019-05-02T04:53:12.828Z,7.80
2019-05-02T04:56:01.617Z,8.00
2019-05-02T04:58:29.689Z,8.00
2019-05-02T05:01:04.544Z,8.10
2019-05-02T05:03:41.061Z,8.30
2019-05-02T05:06:15.706Z,8.20
2019-05-02T05:08:48.475Z,8.20
2019-05-02T05:11:24.996Z,8.10
2019-05-02T05:14:00.410Z,8.30
2019-05-02T05:16:37.276Z,8.70
2019-05-02T05:19:11.463Z,8.90
2019-05-02T05:21:47.631Z,9.10
2019-05-02T05:24:24.945Z,9.40
2019-05-02T05:27:00.276Z,9.80
2019-05-02T05:29:37.363Z,10.30
2019-05-02T05:32:18.840Z,10.40
2019-05-02T05:34:54.065Z,10.30
2019-05-02T05:37:29.486Z,10.40
2019-05-02T05:39:59.607Z,10.80
2019-05-02T05:42:37.964Z,10.70
2019-05-02T05:45:14.013Z,11.30
2019-05-02T05:47:52.392Z,11.70
2019-05-02T05:50:27.594Z,11.80
2019-05-02T05:53:04.792Z,12.00
2019-05-02T05:55:44.125Z,12.20
2019-05-02T05:58:22.462Z,11.10
2019-05-02T06:00:58.406Z,10.20
2019-05-02T06:03:44.537Z,10.10
2019-05-02T06:06:24.437Z,10.50
2019-05-02T06:09:02.205Z,10.80
2019-05-02T06:11:39.934Z,10.60
2019-05-02T06:14:19.960Z,10.50
2019-05-02T06:16:51.785Z,10.80
2019-05-02T06:19:26.684Z,10.70
2019-05-02T06:22:00.156Z,10.70
2019-05-02T06:24:38.048Z,10.70
2019-05-02T17:40:01.649Z,15.00
2019-05-02T17:44:22.213Z,15.00
2019-05-02T17:46:58.132Z,14.80
2019-05-02T17:49:36.650Z,14.80
2019-05-02T17:52:43.029Z,14.90
2019-05-02T17:55:18.408Z,14.80
2019-05-02T17:58:04.574Z,14.70
2019-05-02T18:00:43.163Z,14.70
2019-05-02T18:03:18.482Z,14.40
2019-05-02T18:05:58.809Z,14.30
2019-05-02T18:08:36.026Z,14.20
2019-05-02T18:11:14.385Z,14.10
2019-05-02T18:13:51.777Z,14.00
2019-05-02T18:16:25.129Z,13.80
2019-05-02T18:19:01.938Z,13.70
2019-05-02T18:21:58.201Z,13.60
2019-05-02T18:24:42.817Z,13.50
2019-05-02T18:27:19.743Z,13.40
2019-05-02T18:29:58.175Z,13.30
2019-05-02T18:32:44.072Z,13.20
2019-05-02T18:35:28.858Z,13.10
2019-05-02T18:38:07.357Z,13.00
2019-05-02T18:40:42.567Z,12.90
2019-05-02T18:43:28.156Z,12.80
2019-05-02T18:46:07.723Z,12.70
2019-05-02T18:52:38.055Z,12.70
2019-05-02T18:55:23.059Z,12.70
2019-05-02T18:58:05.414Z,12.60
2019-05-02T19:00:39.587Z,12.40
2019-05-02T19:03:17.242Z,12.40
2019-05-02T19:05:57.273Z,12.30
2019-05-02T19:08:45.261Z,11.90
2019-05-02T19:11:21.987Z,11.70
2019-05-02T19:14:04.900Z,11.60
2019-05-02T19:16:38.581Z,11.40
2019-05-02T19:19:12.589Z,11.30
2019-05-02T19:21:47.691Z,11.20
2019-05-02T19:24:27.516Z,11.10
2019-05-02T19:27:30.168Z,11.00
2019-05-02T19:30:03.832Z,11.00
2019-05-02T19:38:27.456Z,10.90
2019-05-02T19:41:05.467Z,10.80
2019-05-02T19:44:21.400Z,10.70
2019-05-02T19:46:57.333Z,10.60
2019-05-02T19:49:37.167Z,10.60
2019-05-02T19:52:12.865Z,10.50
2019-05-02T19:54:46.731Z,10.50
2019-05-02T19:57:24.873Z,10.50
2019-05-02T19:59:57.162Z,10.40
2019-05-02T20:02:37.430Z,10.40
2019-05-02T20:05:36.765Z,10.30
2019-05-02T20:08:22.819Z,10.30
2019-05-02T20:10:58.638Z,10.30
2019-05-02T20:13:33.786Z,10.20
2019-05-02T20:16:16.532Z,10.20
2019-05-02T20:18:54.030Z,10.20
2019-05-02T20:21:29.751Z,10.10
2019-05-02T20:24:17.575Z,10.10
2019-05-02T20:26:54.536Z,10.10
2019-05-02T20:29:25.109Z,10.10
2019-05-02T20:32:02.137Z,10.00
2019-05-02T20:34:42.122Z,10.00
2019-05-02T20:50:53.437Z,10.00
2019-05-02T20:53:35.621Z,10.00
2019-05-02T20:56:14.903Z,9.90
2019-05-02T20:58:52.748Z,9.80
2019-05-02T21:01:31.655Z,9.80
2019-05-02T21:05:15.070Z,9.80
2019-05-02T21:08:01.963Z,9.80
2019-05-02T21:10:43.251Z,9.90
2019-05-02T21:13:32.617Z,9.90
2019-05-02T21:16:12.395Z,9.90
2019-05-02T21:18:46.167Z,9.90
2019-05-02T21:21:25.769Z,9.80
2019-05-02T21:24:17.808Z,9.70
2019-05-02T21:27:01.788Z,9.70
2019-05-02T21:29:37.088Z,9.60
2019-05-02T21:32:16.174Z,9.60
2019-05-02T21:34:55.133Z,9.60
2019-05-02T21:37:29.078Z,9.60
2019-05-02T21:40:09.422Z,9.60
2019-05-02T21:42:44.086Z,9.50
2019-05-02T21:45:19.969Z,9.50
2019-05-02T21:47:58.877Z,9.40
2019-05-02T21:50:46.385Z,9.50
2019-05-02T21:53:28.243Z,9.50
2019-05-02T21:56:04.987Z,9.40
2019-05-02T21:58:42.698Z,9.40
2019-05-02T22:01:17.887Z,9.40
2019-05-02T22:03:53.236Z,9.40
2019-05-02T22:06:32.979Z,9.30
2019-05-02T22:09:07.732Z,9.30
2019-05-02T22:11:46.615Z,9.40
2019-05-02T22:14:22.299Z,9.40
2019-05-02T22:16:54.581Z,9.50
2019-05-02T22:19:29.876Z,9.50
2019-05-02T22:22:07.155Z,9.50
2019-05-02T22:24:49.169Z,9.40
2019-05-02T22:27:32.362Z,9.40
2019-05-02T22:30:13.855Z,9.40
2019-05-02T22:32:48.600Z,9.40
2019-05-02T22:35:43.464Z,9.40
2019-05-02T22:38:26.451Z,9.40
2019-05-02T22:41:04.193Z,9.40
2019-05-02T22:43:42.133Z,9.30
2019-05-02T22:46:43.285Z,9.30
2019-05-02T22:49:17.222Z,9.30
2019-05-02T22:51:56.585Z,9.30
2019-05-02T22:54:31.545Z,9.30
2019-05-02T22:57:04.654Z,9.20
2019-05-02T22:59:44.487Z,9.20
2019-05-02T23:02:17.981Z,9.20
2019-05-02T23:04:55.325Z,9.10
2019-05-02T23:07:31.724Z,9.10
2019-05-02T23:10:05.465Z,9.10
2019-05-02T23:12:39.410Z,9.00
2019-05-02T23:15:37.339Z,9.00
2019-05-02T23:18:17.286Z,8.80
2019-05-02T23:21:02.862Z,8.80
2019-05-02T23:23:41.846Z,8.80
2019-05-02T23:26:35.975Z,8.80
2019-05-02T23:29:34.451Z,8.80
2019-05-02T23:32:11.835Z,8.90
2019-05-02T23:34:46.380Z,8.90
2019-05-02T23:37:18.957Z,8.90
2019-05-02T23:39:56.239Z,8.90
2019-05-02T23:42:34.310Z,9.00
2019-05-02T23:45:09.450Z,9.00
2019-05-02T23:47:44.429Z,9.00
2019-05-02T23:50:17.976Z,9.00
2019-05-02T23:52:55.342Z,9.10
2019-05-02T23:55:28.325Z,9.10
2019-05-02T23:58:08.051Z,9.10
